sensor_id;sensor_type;location;lat;lon;timestamp;P1;durP1;ratioP1;P2;durP2;ratioP2
41711;SDS011;27399;51.516;13.670;2023-04-25T00:00:11;6.00;;;2.80;;
41711;SDS011;27399;51.516;13.670;2023-04-25T00:02:37;6.20;;;3.20;;
41711;SDS011;27399;51.516;13.670;2023-04-25T00:05:02;4.93;;;3.42;;
41711;SDS011;27399;51.516;13.670;2023-04-25T00:07:29;6.55;;;3.15;;
41711;SDS011;27399;51.516;13.670;2023-04-25T00:09:56;5.55;;;3.28;;
41711;SDS011;27399;51.516;13.670;2023-04-25T00:12:21;6.50;;;3.20;;
41711;SDS011;27399;51.516;13.670;2023-04-25T00:14:48;5.00;;;2.97;;
41711;SDS011;27399;51.516;13.670;2023-04-25T00:17:15;5.43;;;3.28;;
41711;SDS011;27399;51.516;13.670;2023-04-25T00:19:41;7.55;;;3.50;;
41711;SDS011;27399;51.516;13.670;2023-04-25T00:22:09;6.88;;;2.90;;
41711;SDS011;27399;51.516;13.670;2023-04-25T00:24:35;6.28;;;3.03;;
41711;SDS011;27399;51.516;13.670;2023-04-25T00:27:01;4.97;;;3.10;;
41711;SDS011;27399;51.516;13.670;2023-04-25T00:29:27;5.07;;;3.10;;
41711;SDS011;27399;51.516;13.670;2023-04-25T00:31:52;7.07;;;3.08;;
41711;SDS011;27399;51.516;13.670;2023-04-25T00:34:18;5.45;;;2.92;;
41711;SDS011;27399;51.516;13.670;2023-04-25T00:36:43;7.80;;;3.15;;
41711;SDS011;27399;51.516;13.670;2023-04-25T00:39:09;7.22;;;3.10;;
41711;SDS011;27399;51.516;13.670;2023-04-25T00:41:36;5.78;;;3.08;;
41711;SDS011;27399;51.516;13.670;2023-04-25T00:44:03;10.27;;;3.25;;
41711;SDS011;27399;51.516;13.670;2023-04-25T00:46:31;6.72;;;2.38;;
41711;SDS011;27399;51.516;13.670;2023-04-25T00:48:57;8.18;;;2.67;;
41711;SDS011;27399;51.516;13.670;2023-04-25T00:51:23;4.28;;;2.58;;
41711;SDS011;27399;51.516;13.670;2023-04-25T00:53:50;9.55;;;3.10;;
41711;SDS011;27399;51.516;13.670;2023-04-25T00:56:16;5.40;;;3.05;;
41711;SDS011;27399;51.516;13.670;2023-04-25T00:58:42;6.10;;;2.92;;
41711;SDS011;27399;51.516;13.670;2023-04-25T01:01:08;5.28;;;3.08;;
41711;SDS011;27399;51.516;13.670;2023-04-25T01:03:36;4.85;;;2.83;;
41711;SDS011;27399;51.516;13.670;2023-04-25T01:06:07;7.43;;;3.17;;
41711;SDS011;27399;51.516;13.670;2023-04-25T01:08:34;5.95;;;2.60;;
41711;SDS011;27399;51.516;13.670;2023-04-25T01:11:00;5.22;;;2.78;;
41711;SDS011;27399;51.516;13.670;2023-04-25T01:13:26;6.97;;;2.60;;
41711;SDS011;27399;51.516;13.670;2023-04-25T01:15:52;4.47;;;2.70;;
41711;SDS011;27399;51.516;13.670;2023-04-25T01:18:18;4.47;;;2.60;;
41711;SDS011;27399;51.516;13.670;2023-04-25T01:20:45;8.63;;;2.85;;
41711;SDS011;27399;51.516;13.670;2023-04-25T01:23:15;6.43;;;2.90;;
41711;SDS011;27399;51.516;13.670;2023-04-25T01:25:41;7.28;;;3.13;;
41711;SDS011;27399;51.516;13.670;2023-04-25T01:28:07;8.45;;;2.55;;
41711;SDS011;27399;51.516;13.670;2023-04-25T01:30:33;7.55;;;2.55;;
41711;SDS011;27399;51.516;13.670;2023-04-25T01:33:00;7.95;;;2.88;;
41711;SDS011;27399;51.516;13.670;2023-04-25T01:35:26;5.95;;;3.03;;
41711;SDS011;27399;51.516;13.670;2023-04-25T01:37:52;4.38;;;2.75;;
41711;SDS011;27399;51.516;13.670;2023-04-25T01:40:18;5.80;;;2.80;;
41711;SDS011;27399;51.516;13.670;2023-04-25T01:42:45;5.85;;;2.65;;
41711;SDS011;27399;51.516;13.670;2023-04-25T01:45:11;4.72;;;2.50;;
41711;SDS011;27399;51.516;13.670;2023-04-25T01:47:38;7.60;;;3.25;;
41711;SDS011;27399;51.516;13.670;2023-04-25T01:50:05;5.35;;;2.67;;
41711;SDS011;27399;51.516;13.670;2023-04-25T01:52:32;8.05;;;3.08;;
41711;SDS011;27399;51.516;13.670;2023-04-25T01:54:59;3.40;;;2.35;;
41711;SDS011;27399;51.516;13.670;2023-04-25T01:57:26;8.25;;;3.00;;
41711;SDS011;27399;51.516;13.670;2023-04-25T01:59:54;5.63;;;2.40;;
41711;SDS011;27399;51.516;13.670;2023-04-25T02:02:24;4.47;;;2.95;;
41711;SDS011;27399;51.516;13.670;2023-04-25T02:04:51;5.75;;;3.35;;
41711;SDS011;27399;51.516;13.670;2023-04-25T02:07:17;9.70;;;2.95;;
41711;SDS011;27399;51.516;13.670;2023-04-25T02:09:42;7.45;;;3.15;;
41711;SDS011;27399;51.516;13.670;2023-04-25T02:12:09;4.03;;;2.33;;
41711;SDS011;27399;51.516;13.670;2023-04-25T02:14:35;6.97;;;4.35;;
41711;SDS011;27399;51.516;13.670;2023-04-25T02:17:01;5.97;;;3.10;;
41711;SDS011;27399;51.516;13.670;2023-04-25T02:19:26;6.93;;;3.60;;
41711;SDS011;27399;51.516;13.670;2023-04-25T02:21:52;7.65;;;3.33;;
41711;SDS011;27399;51.516;13.670;2023-04-25T02:24:18;7.05;;;3.00;;
41711;SDS011;27399;51.516;13.670;2023-04-25T02:26:43;5.47;;;2.95;;
41711;SDS011;27399;51.516;13.670;2023-04-25T02:29:09;10.48;;;4.60;;
41711;SDS011;27399;51.516;13.670;2023-04-25T02:31:35;12.00;;;4.03;;
41711;SDS011;27399;51.516;13.670;2023-04-25T02:34:01;6.68;;;4.10;;
41711;SDS011;27399;51.516;13.670;2023-04-25T02:36:26;6.60;;;4.35;;
41711;SDS011;27399;51.516;13.670;2023-04-25T02:38:52;8.90;;;4.35;;
41711;SDS011;27399;51.516;13.670;2023-04-25T02:41:18;8.55;;;3.80;;
41711;SDS011;27399;51.516;13.670;2023-04-25T02:43:45;7.03;;;3.88;;
41711;SDS011;27399;51.516;13.670;2023-04-25T02:46:11;6.80;;;4.28;;
41711;SDS011;27399;51.516;13.670;2023-04-25T02:48:36;8.50;;;4.38;;
41711;SDS011;27399;51.516;13.670;2023-04-25T02:51:02;8.57;;;4.05;;
41711;SDS011;27399;51.516;13.670;2023-04-25T02:53:28;6.18;;;3.78;;
41711;SDS011;27399;51.516;13.670;2023-04-25T02:55:53;8.30;;;4.05;;
41711;SDS011;27399;51.516;13.670;2023-04-25T02:58:19;7.63;;;4.35;;
41711;SDS011;27399;51.516;13.670;2023-04-25T03:00:45;9.95;;;4.60;;
41711;SDS011;27399;51.516;13.670;2023-04-25T03:03:11;9.60;;;4.60;;
41711;SDS011;27399;51.516;13.670;2023-04-25T03:05:36;7.47;;;4.43;;
41711;SDS011;27399;51.516;13.670;2023-04-25T03:08:02;6.03;;;3.80;;
41711;SDS011;27399;51.516;13.670;2023-04-25T03:10:28;9.45;;;3.95;;
41711;SDS011;27399;51.516;13.670;2023-04-25T03:12:53;7.00;;;4.18;;
41711;SDS011;27399;51.516;13.670;2023-04-25T03:15:19;11.25;;;4.38;;
41711;SDS011;27399;51.516;13.670;2023-04-25T03:17:44;7.30;;;4.18;;
41711;SDS011;27399;51.516;13.670;2023-04-25T03:20:10;9.57;;;4.30;;
41711;SDS011;27399;51.516;13.670;2023-04-25T03:22:36;5.95;;;4.63;;
41711;SDS011;27399;51.516;13.670;2023-04-25T03:25:02;13.88;;;5.65;;
41711;SDS011;27399;51.516;13.670;2023-04-25T03:27:29;7.20;;;4.35;;
41711;SDS011;27399;51.516;13.670;2023-04-25T03:29:54;10.15;;;4.47;;
41711;SDS011;27399;51.516;13.670;2023-04-25T03:32:20;10.23;;;4.80;;
41711;SDS011;27399;51.516;13.670;2023-04-25T03:34:45;8.55;;;4.43;;
41711;SDS011;27399;51.516;13.670;2023-04-25T03:37:11;9.38;;;4.90;;
41711;SDS011;27399;51.516;13.670;2023-04-25T03:39:37;8.07;;;4.35;;
41711;SDS011;27399;51.516;13.670;2023-04-25T03:42:03;9.20;;;4.93;;
41711;SDS011;27399;51.516;13.670;2023-04-25T03:44:29;9.85;;;4.15;;
41711;SDS011;27399;51.516;13.670;2023-04-25T03:46:55;12.02;;;4.28;;
41711;SDS011;27399;51.516;13.670;2023-04-25T03:49:20;11.43;;;4.93;;
41711;SDS011;27399;51.516;13.670;2023-04-25T03:51:46;11.65;;;4.55;;
41711;SDS011;27399;51.516;13.670;2023-04-25T03:54:12;13.90;;;5.13;;
41711;SDS011;27399;51.516;13.670;2023-04-25T03:56:37;8.88;;;4.45;;
41711;SDS011;27399;51.516;13.670;2023-04-25T03:59:03;9.07;;;4.50;;
41711;SDS011;27399;51.516;13.670;2023-04-25T04:01:28;7.03;;;4.07;;
41711;SDS011;27399;51.516;13.670;2023-04-25T04:03:54;9.88;;;4.80;;
41711;SDS011;27399;51.516;13.670;2023-04-25T04:06:20;9.80;;;4.30;;
41711;SDS011;27399;51.516;13.670;2023-04-25T04:08:46;11.93;;;5.45;;
41711;SDS011;27399;51.516;13.670;2023-04-25T04:11:12;9.90;;;4.20;;
41711;SDS011;27399;51.516;13.670;2023-04-25T04:13:37;11.02;;;4.97;;
41711;SDS011;27399;51.516;13.670;2023-04-25T04:16:03;8.35;;;4.50;;
41711;SDS011;27399;51.516;13.670;2023-04-25T04:18:29;9.85;;;5.03;;
41711;SDS011;27399;51.516;13.670;2023-04-25T04:20:55;8.15;;;4.45;;
41711;SDS011;27399;51.516;13.670;2023-04-25T04:23:23;10.00;;;4.60;;
41711;SDS011;27399;51.516;13.670;2023-04-25T04:25:49;7.90;;;4.15;;
41711;SDS011;27399;51.516;13.670;2023-04-25T04:28:14;10.80;;;4.40;;
41711;SDS011;27399;51.516;13.670;2023-04-25T04:30:41;13.30;;;4.35;;
41711;SDS011;27399;51.516;13.670;2023-04-25T04:33:07;7.82;;;4.10;;
41711;SDS011;27399;51.516;13.670;2023-04-25T04:35:34;6.28;;;3.78;;
41711;SDS011;27399;51.516;13.670;2023-04-25T04:37:59;7.25;;;4.00;;
41711;SDS011;27399;51.516;13.670;2023-04-25T04:40:25;14.55;;;4.20;;
41711;SDS011;27399;51.516;13.670;2023-04-25T04:42:51;10.90;;;4.47;;
41711;SDS011;27399;51.516;13.670;2023-04-25T04:45:18;8.13;;;4.60;;
41711;SDS011;27399;51.516;13.670;2023-04-25T04:47:44;11.88;;;4.07;;
41711;SDS011;27399;51.516;13.670;2023-04-25T04:50:10;8.88;;;4.05;;
41711;SDS011;27399;51.516;13.670;2023-04-25T04:52:36;7.22;;;4.18;;
41711;SDS011;27399;51.516;13.670;2023-04-25T04:55:03;7.30;;;3.80;;
41711;SDS011;27399;51.516;13.670;2023-04-25T04:57:30;13.32;;;4.25;;
41711;SDS011;27399;51.516;13.670;2023-04-25T04:59:58;6.30;;;3.72;;
41711;SDS011;27399;51.516;13.670;2023-04-25T05:02:24;6.15;;;3.45;;
41711;SDS011;27399;51.516;13.670;2023-04-25T05:04:50;14.88;;;3.50;;
41711;SDS011;27399;51.516;13.670;2023-04-25T05:07:17;8.55;;;3.50;;
41711;SDS011;27399;51.516;13.670;2023-04-25T05:09:43;7.20;;;3.25;;
41711;SDS011;27399;51.516;13.670;2023-04-25T05:12:09;7.43;;;3.47;;
41711;SDS011;27399;51.516;13.670;2023-04-25T05:14:35;8.02;;;3.40;;
41711;SDS011;27399;51.516;13.670;2023-04-25T05:17:00;5.25;;;3.65;;
41711;SDS011;27399;51.516;13.670;2023-04-25T05:19:26;7.47;;;2.85;;
41711;SDS011;27399;51.516;13.670;2023-04-25T05:21:52;7.40;;;3.47;;
41711;SDS011;27399;51.516;13.670;2023-04-25T05:24:18;4.95;;;2.90;;
41711;SDS011;27399;51.516;13.670;2023-04-25T05:26:43;9.30;;;3.60;;
41711;SDS011;27399;51.516;13.670;2023-04-25T05:29:09;8.63;;;3.63;;
41711;SDS011;27399;51.516;13.670;2023-04-25T05:31:35;8.23;;;2.95;;
41711;SDS011;27399;51.516;13.670;2023-04-25T05:34:01;10.10;;;3.72;;
41711;SDS011;27399;51.516;13.670;2023-04-25T05:36:27;10.10;;;3.90;;
41711;SDS011;27399;51.516;13.670;2023-04-25T05:38:53;5.65;;;2.92;;
41711;SDS011;27399;51.516;13.670;2023-04-25T05:41:18;7.03;;;3.13;;
41711;SDS011;27399;51.516;13.670;2023-04-25T05:43:45;22.05;;;4.10;;
41711;SDS011;27399;51.516;13.670;2023-04-25T05:46:12;7.00;;;2.85;;
41711;SDS011;27399;51.516;13.670;2023-04-25T05:48:39;8.82;;;3.17;;
41711;SDS011;27399;51.516;13.670;2023-04-25T05:51:04;9.85;;;3.22;;
41711;SDS011;27399;51.516;13.670;2023-04-25T05:53:30;13.27;;;2.97;;
41711;SDS011;27399;51.516;13.670;2023-04-25T05:55:56;7.75;;;2.95;;
41711;SDS011;27399;51.516;13.670;2023-04-25T05:58:22;12.75;;;2.88;;
41711;SDS011;27399;51.516;13.670;2023-04-25T06:00:50;7.40;;;3.17;;
41711;SDS011;27399;51.516;13.670;2023-04-25T06:03:17;7.13;;;3.42;;
41711;SDS011;27399;51.516;13.670;2023-04-25T06:05:42;7.57;;;2.88;;
41711;SDS011;27399;51.516;13.670;2023-04-25T06:08:08;14.10;;;3.08;;
41711;SDS011;27399;51.516;13.670;2023-04-25T06:10:35;8.77;;;2.60;;
41711;SDS011;27399;51.516;13.670;2023-04-25T06:13:01;10.95;;;3.25;;
41711;SDS011;27399;51.516;13.670;2023-04-25T06:15:27;9.10;;;3.10;;
41711;SDS011;27399;51.516;13.670;2023-04-25T06:17:53;7.78;;;2.67;;
41711;SDS011;27399;51.516;13.670;2023-04-25T06:20:18;9.02;;;3.30;;
41711;SDS011;27399;51.516;13.670;2023-04-25T06:22:48;11.35;;;2.72;;
41711;SDS011;27399;51.516;13.670;2023-04-25T06:25:15;10.80;;;2.95;;
41711;SDS011;27399;51.516;13.670;2023-04-25T06:27:41;6.78;;;2.50;;
41711;SDS011;27399;51.516;13.670;2023-04-25T06:30:06;6.35;;;2.80;;
41711;SDS011;27399;51.516;13.670;2023-04-25T06:32:32;9.57;;;2.90;;
41711;SDS011;27399;51.516;13.670;2023-04-25T06:34:59;7.60;;;2.67;;
41711;SDS011;27399;51.516;13.670;2023-04-25T06:37:25;8.23;;;2.72;;
41711;SDS011;27399;51.516;13.670;2023-04-25T06:39:51;8.70;;;2.67;;
41711;SDS011;27399;51.516;13.670;2023-04-25T06:42:17;5.22;;;2.22;;
41711;SDS011;27399;51.516;13.670;2023-04-25T06:44:42;7.38;;;2.50;;
41711;SDS011;27399;51.516;13.670;2023-04-25T06:47:08;6.03;;;2.75;;
41711;SDS011;27399;51.516;13.670;2023-04-25T06:49:34;5.55;;;2.67;;
41711;SDS011;27399;51.516;13.670;2023-04-25T06:51:59;10.90;;;2.28;;
41711;SDS011;27399;51.516;13.670;2023-04-25T06:54:25;13.73;;;3.35;;
41711;SDS011;27399;51.516;13.670;2023-04-25T06:56:52;11.15;;;2.58;;
41711;SDS011;27399;51.516;13.670;2023-04-25T06:59:18;7.20;;;2.40;;
41711;SDS011;27399;51.516;13.670;2023-04-25T07:01:44;10.70;;;2.83;;
41711;SDS011;27399;51.516;13.670;2023-04-25T07:04:10;5.75;;;1.98;;
41711;SDS011;27399;51.516;13.670;2023-04-25T07:06:36;6.30;;;2.30;;
41711;SDS011;27399;51.516;13.670;2023-04-25T07:09:07;4.28;;;2.00;;
41711;SDS011;27399;51.516;13.670;2023-04-25T07:11:33;6.78;;;2.28;;
41711;SDS011;27399;51.516;13.670;2023-04-25T07:13:59;8.10;;;2.47;;
41711;SDS011;27399;51.516;13.670;2023-04-25T07:16:25;6.15;;;2.47;;
41711;SDS011;27399;51.516;13.670;2023-04-25T07:18:50;7.38;;;2.10;;
41711;SDS011;27399;51.516;13.670;2023-04-25T07:21:16;8.35;;;1.92;;
41711;SDS011;27399;51.516;13.670;2023-04-25T07:23:41;7.03;;;2.47;;
41711;SDS011;27399;51.516;13.670;2023-04-25T07:26:07;6.15;;;2.80;;
41711;SDS011;27399;51.516;13.670;2023-04-25T07:28:33;8.38;;;2.28;;
41711;SDS011;27399;51.516;13.670;2023-04-25T07:30:58;8.65;;;3.13;;
41711;SDS011;27399;51.516;13.670;2023-04-25T07:33:25;6.05;;;2.90;;
41711;SDS011;27399;51.516;13.670;2023-04-25T07:35:52;6.53;;;2.80;;
41711;SDS011;27399;51.516;13.670;2023-04-25T07:38:18;8.77;;;2.80;;
41711;SDS011;27399;51.516;13.670;2023-04-25T07:40:43;8.75;;;2.85;;
41711;SDS011;27399;51.516;13.670;2023-04-25T07:43:09;12.52;;;3.75;;
41711;SDS011;27399;51.516;13.670;2023-04-25T07:45:49;6.45;;;2.47;;
41711;SDS011;27399;51.516;13.670;2023-04-25T07:48:17;9.15;;;2.85;;
41711;SDS011;27399;51.516;13.670;2023-04-25T07:50:44;10.60;;;3.10;;
41711;SDS011;27399;51.516;13.670;2023-04-25T07:53:10;9.43;;;2.30;;
41711;SDS011;27399;51.516;13.670;2023-04-25T07:55:36;5.18;;;2.17;;
41711;SDS011;27399;51.516;13.670;2023-04-25T07:58:05;11.43;;;2.65;;
41711;SDS011;27399;51.516;13.670;2023-04-25T08:00:31;4.28;;;2.20;;
41711;SDS011;27399;51.516;13.670;2023-04-25T08:02:56;6.80;;;2.22;;
41711;SDS011;27399;51.516;13.670;2023-04-25T08:05:22;9.88;;;2.50;;
41711;SDS011;27399;51.516;13.670;2023-04-25T08:07:47;4.65;;;2.15;;
41711;SDS011;27399;51.516;13.670;2023-04-25T08:10:13;7.88;;;2.45;;
41711;SDS011;27399;51.516;13.670;2023-04-25T08:12:39;4.50;;;2.17;;
41711;SDS011;27399;51.516;13.670;2023-04-25T08:15:05;11.20;;;2.63;;
41711;SDS011;27399;51.516;13.670;2023-04-25T08:17:31;4.78;;;2.20;;
41711;SDS011;27399;51.516;13.670;2023-04-25T08:19:57;4.68;;;2.30;;
41711;SDS011;27399;51.516;13.670;2023-04-25T08:22:22;6.22;;;2.78;;
41711;SDS011;27399;51.516;13.670;2023-04-25T08:24:48;6.80;;;2.08;;
41711;SDS011;27399;51.516;13.670;2023-04-25T08:27:13;3.53;;;2.50;;
41711;SDS011;27399;51.516;13.670;2023-04-25T08:29:41;4.90;;;2.83;;
41711;SDS011;27399;51.516;13.670;2023-04-25T08:32:07;4.93;;;2.22;;
41711;SDS011;27399;51.516;13.670;2023-04-25T08:34:32;5.82;;;2.10;;
41711;SDS011;27399;51.516;13.670;2023-04-25T08:36:58;3.88;;;1.70;;
41711;SDS011;27399;51.516;13.670;2023-04-25T08:39:24;6.07;;;2.10;;
41711;SDS011;27399;51.516;13.670;2023-04-25T08:41:49;6.57;;;2.47;;
41711;SDS011;27399;51.516;13.670;2023-04-25T08:44:15;7.28;;;2.08;;
41711;SDS011;27399;51.516;13.670;2023-04-25T08:46:41;6.60;;;2.70;;
41711;SDS011;27399;51.516;13.670;2023-04-25T08:49:10;5.35;;;2.50;;
41711;SDS011;27399;51.516;13.670;2023-04-25T08:51:40;8.77;;;2.50;;
41711;SDS011;27399;51.516;13.670;2023-04-25T08:54:12;4.82;;;2.20;;
41711;SDS011;27399;51.516;13.670;2023-04-25T08:56:39;9.20;;;2.53;;
41711;SDS011;27399;51.516;13.670;2023-04-25T08:59:06;7.78;;;2.50;;
41711;SDS011;27399;51.516;13.670;2023-04-25T09:01:36;9.85;;;2.80;;
41711;SDS011;27399;51.516;13.670;2023-04-25T09:04:01;3.95;;;2.17;;
41711;SDS011;27399;51.516;13.670;2023-04-25T09:06:30;6.07;;;2.65;;
41711;SDS011;27399;51.516;13.670;2023-04-25T09:09:06;4.40;;;2.75;;
41711;SDS011;27399;51.516;13.670;2023-04-25T09:11:36;4.25;;;2.70;;
41711;SDS011;27399;51.516;13.670;2023-04-25T09:19:22;4.88;;;2.47;;
41711;SDS011;27399;51.516;13.670;2023-04-25T09:21:55;4.13;;;2.70;;
41711;SDS011;27399;51.516;13.670;2023-04-25T09:24:42;6.00;;;2.60;;
41711;SDS011;27399;51.516;13.670;2023-04-25T09:27:10;7.45;;;2.40;;
41711;SDS011;27399;51.516;13.670;2023-04-25T09:29:37;4.00;;;2.80;;
41711;SDS011;27399;51.516;13.670;2023-04-25T09:34:39;6.93;;;3.30;;
41711;SDS011;27399;51.516;13.670;2023-04-25T09:37:07;6.97;;;2.85;;
41711;SDS011;27399;51.516;13.670;2023-04-25T09:39:37;8.68;;;4.95;;
41711;SDS011;27399;51.516;13.670;2023-04-25T09:42:04;6.78;;;3.00;;
41711;SDS011;27399;51.516;13.670;2023-04-25T09:44:30;3.65;;;2.30;;
41711;SDS011;27399;51.516;13.670;2023-04-25T09:46:56;4.57;;;2.97;;
41711;SDS011;27399;51.516;13.670;2023-04-25T09:49:22;5.25;;;2.40;;
41711;SDS011;27399;51.516;13.670;2023-04-25T09:51:55;4.90;;;2.63;;
41711;SDS011;27399;51.516;13.670;2023-04-25T09:54:22;7.28;;;3.50;;
41711;SDS011;27399;51.516;13.670;2023-04-25T09:56:52;7.68;;;3.60;;
41711;SDS011;27399;51.516;13.670;2023-04-25T09:59:19;14.25;;;3.45;;
41711;SDS011;27399;51.516;13.670;2023-04-25T10:01:47;8.38;;;3.28;;
41711;SDS011;27399;51.516;13.670;2023-04-25T10:04:16;5.90;;;3.20;;
41711;SDS011;27399;51.516;13.670;2023-04-25T10:06:46;10.98;;;3.25;;
41711;SDS011;27399;51.516;13.670;2023-04-25T10:09:14;6.93;;;3.70;;
41711;SDS011;27399;51.516;13.670;2023-04-25T10:11:40;8.98;;;3.10;;
41711;SDS011;27399;51.516;13.670;2023-04-25T10:14:06;7.15;;;3.42;;
41711;SDS011;27399;51.516;13.670;2023-04-25T10:16:32;6.20;;;3.03;;
41711;SDS011;27399;51.516;13.670;2023-04-25T10:18:58;7.82;;;3.38;;
41711;SDS011;27399;51.516;13.670;2023-04-25T10:21:24;7.25;;;3.33;;
41711;SDS011;27399;51.516;13.670;2023-04-25T10:23:53;7.40;;;3.78;;
41711;SDS011;27399;51.516;13.670;2023-04-25T10:26:19;5.78;;;3.35;;
41711;SDS011;27399;51.516;13.670;2023-04-25T10:29:00;6.40;;;2.70;;
41711;SDS011;27399;51.516;13.670;2023-04-25T10:31:29;5.97;;;2.58;;
41711;SDS011;27399;51.516;13.670;2023-04-25T10:33:56;6.80;;;2.80;;
41711;SDS011;27399;51.516;13.670;2023-04-25T10:36:22;7.75;;;2.85;;
41711;SDS011;27399;51.516;13.670;2023-04-25T10:38:50;4.18;;;2.55;;
41711;SDS011;27399;51.516;13.670;2023-04-25T10:41:20;5.70;;;2.58;;
41711;SDS011;27399;51.516;13.670;2023-04-25T10:43:48;7.57;;;2.78;;
41711;SDS011;27399;51.516;13.670;2023-04-25T10:48:53;4.95;;;2.65;;
41711;SDS011;27399;51.516;13.670;2023-04-25T10:51:21;8.50;;;3.28;;
41711;SDS011;27399;51.516;13.670;2023-04-25T10:56:20;5.65;;;3.10;;
41711;SDS011;27399;51.516;13.670;2023-04-25T10:58:47;8.30;;;2.90;;
41711;SDS011;27399;51.516;13.670;2023-04-25T11:01:14;6.20;;;2.60;;
41711;SDS011;27399;51.516;13.670;2023-04-25T11:03:41;9.52;;;2.92;;
41711;SDS011;27399;51.516;13.670;2023-04-25T11:08:49;8.25;;;2.60;;
41711;SDS011;27399;51.516;13.670;2023-04-25T11:11:16;9.15;;;2.80;;
41711;SDS011;27399;51.516;13.670;2023-04-25T11:13:43;9.10;;;2.20;;
41711;SDS011;27399;51.516;13.670;2023-04-25T11:16:09;9.57;;;2.78;;
41711;SDS011;27399;51.516;13.670;2023-04-25T11:18:34;9.63;;;2.45;;
41711;SDS011;27399;51.516;13.670;2023-04-25T11:21:00;14.45;;;2.60;;
41711;SDS011;27399;51.516;13.670;2023-04-25T11:23:27;13.00;;;2.38;;
41711;SDS011;27399;51.516;13.670;2023-04-25T11:25:55;8.63;;;1.75;;
41711;SDS011;27399;51.516;13.670;2023-04-25T11:28:21;10.23;;;2.70;;
41711;SDS011;27399;51.516;13.670;2023-04-25T11:30:48;9.45;;;2.70;;
41711;SDS011;27399;51.516;13.670;2023-04-25T11:33:17;8.70;;;1.90;;
41711;SDS011;27399;51.516;13.670;2023-04-25T11:35:43;15.90;;;3.65;;
41711;SDS011;27399;51.516;13.670;2023-04-25T11:38:09;7.90;;;2.33;;
41711;SDS011;27399;51.516;13.670;2023-04-25T11:40:35;13.27;;;2.50;;
41711;SDS011;27399;51.516;13.670;2023-04-25T11:43:01;8.27;;;2.22;;
41711;SDS011;27399;51.516;13.670;2023-04-25T11:45:27;12.30;;;2.28;;
41711;SDS011;27399;51.516;13.670;2023-04-25T11:47:54;12.55;;;2.70;;
41711;SDS011;27399;51.516;13.670;2023-04-25T11:50:20;10.15;;;2.47;;
41711;SDS011;27399;51.516;13.670;2023-04-25T11:52:46;11.77;;;2.58;;
41711;SDS011;27399;51.516;13.670;2023-04-25T11:55:14;17.48;;;2.70;;
41711;SDS011;27399;51.516;13.670;2023-04-25T11:57:42;9.45;;;2.45;;
41711;SDS011;27399;51.516;13.670;2023-04-25T12:00:12;9.73;;;2.58;;
41711;SDS011;27399;51.516;13.670;2023-04-25T12:02:42;15.50;;;3.38;;
41711;SDS011;27399;51.516;13.670;2023-04-25T12:05:12;8.07;;;2.90;;
41711;SDS011;27399;51.516;13.670;2023-04-25T12:07:39;11.07;;;2.78;;
41711;SDS011;27399;51.516;13.670;2023-04-25T12:10:10;11.98;;;2.47;;
41711;SDS011;27399;51.516;13.670;2023-04-25T12:12:37;12.13;;;3.13;;
41711;SDS011;27399;51.516;13.670;2023-04-25T12:15:09;8.45;;;2.20;;
41711;SDS011;27399;51.516;13.670;2023-04-25T12:17:36;9.05;;;2.20;;
41711;SDS011;27399;51.516;13.670;2023-04-25T12:20:10;11.88;;;2.75;;
41711;SDS011;27399;51.516;13.670;2023-04-25T12:22:48;14.35;;;2.85;;
41711;SDS011;27399;51.516;13.670;2023-04-25T12:28:14;13.45;;;2.58;;
41711;SDS011;27399;51.516;13.670;2023-04-25T12:33:23;13.95;;;2.03;;
41711;SDS011;27399;51.516;13.670;2023-04-25T12:35:49;11.13;;;2.70;;
41711;SDS011;27399;51.516;13.670;2023-04-25T12:38:21;8.40;;;2.28;;
41711;SDS011;27399;51.516;13.670;2023-04-25T12:40:51;16.77;;;3.05;;
41711;SDS011;27399;51.516;13.670;2023-04-25T12:43:17;10.43;;;2.75;;
41711;SDS011;27399;51.516;13.670;2023-04-25T12:45:44;9.60;;;3.17;;
41711;SDS011;27399;51.516;13.670;2023-04-25T12:48:10;22.23;;;3.45;;
41711;SDS011;27399;51.516;13.670;2023-04-25T12:50:36;9.02;;;2.47;;
41711;SDS011;27399;51.516;13.670;2023-04-25T12:53:01;12.95;;;2.22;;
41711;SDS011;27399;51.516;13.670;2023-04-25T12:55:27;14.30;;;2.50;;
41711;SDS011;27399;51.516;13.670;2023-04-25T12:57:53;12.57;;;2.38;;
41711;SDS011;27399;51.516;13.670;2023-04-25T13:00:18;10.35;;;2.75;;
41711;SDS011;27399;51.516;13.670;2023-04-25T13:02:45;11.93;;;2.78;;
41711;SDS011;27399;51.516;13.670;2023-04-25T13:05:13;13.18;;;2.50;;
41711;SDS011;27399;51.516;13.670;2023-04-25T13:07:39;11.38;;;2.38;;
41711;SDS011;27399;51.516;13.670;2023-04-25T13:10:05;10.25;;;3.45;;
41711;SDS011;27399;51.516;13.670;2023-04-25T13:12:31;13.43;;;2.95;;
41711;SDS011;27399;51.516;13.670;2023-04-25T13:14:57;8.07;;;2.67;;
41711;SDS011;27399;51.516;13.670;2023-04-25T13:17:23;13.35;;;2.33;;
41711;SDS011;27399;51.516;13.670;2023-04-25T13:19:48;11.90;;;2.47;;
41711;SDS011;27399;51.516;13.670;2023-04-25T13:22:14;12.48;;;2.67;;
41711;SDS011;27399;51.516;13.670;2023-04-25T13:24:41;20.42;;;2.40;;
41711;SDS011;27399;51.516;13.670;2023-04-25T13:27:07;6.55;;;1.98;;
41711;SDS011;27399;51.516;13.670;2023-04-25T13:29:33;12.43;;;2.30;;
41711;SDS011;27399;51.516;13.670;2023-04-25T13:32:01;10.32;;;2.00;;
41711;SDS011;27399;51.516;13.670;2023-04-25T13:34:27;11.68;;;2.15;;
41711;SDS011;27399;51.516;13.670;2023-04-25T13:36:53;8.35;;;2.15;;
41711;SDS011;27399;51.516;13.670;2023-04-25T13:39:19;7.57;;;1.83;;
41711;SDS011;27399;51.516;13.670;2023-04-25T13:41:45;8.45;;;2.05;;
41711;SDS011;27399;51.516;13.670;2023-04-25T13:44:11;7.75;;;1.88;;
41711;SDS011;27399;51.516;13.670;2023-04-25T13:46:36;12.52;;;2.28;;
41711;SDS011;27399;51.516;13.670;2023-04-25T13:49:03;10.23;;;2.45;;
41711;SDS011;27399;51.516;13.670;2023-04-25T13:51:29;16.27;;;2.65;;
41711;SDS011;27399;51.516;13.670;2023-04-25T13:53:55;13.63;;;2.10;;
41711;SDS011;27399;51.516;13.670;2023-04-25T13:56:21;14.43;;;2.75;;
41711;SDS011;27399;51.516;13.670;2023-04-25T13:58:48;11.40;;;2.63;;
41711;SDS011;27399;51.516;13.670;2023-04-25T14:01:17;9.73;;;2.33;;
41711;SDS011;27399;51.516;13.670;2023-04-25T14:03:44;12.60;;;2.63;;
41711;SDS011;27399;51.516;13.670;2023-04-25T14:06:10;15.63;;;3.13;;
41711;SDS011;27399;51.516;13.670;2023-04-25T14:08:37;10.55;;;2.15;;
41711;SDS011;27399;51.516;13.670;2023-04-25T14:11:03;15.75;;;2.45;;
41711;SDS011;27399;51.516;13.670;2023-04-25T14:13:29;7.30;;;2.38;;
41711;SDS011;27399;51.516;13.670;2023-04-25T14:15:55;10.50;;;2.10;;
41711;SDS011;27399;51.516;13.670;2023-04-25T14:18:20;7.05;;;2.30;;
41711;SDS011;27399;51.516;13.670;2023-04-25T14:20:46;10.55;;;2.42;;
41711;SDS011;27399;51.516;13.670;2023-04-25T14:23:12;13.07;;;2.72;;
41711;SDS011;27399;51.516;13.670;2023-04-25T14:25:38;10.85;;;2.08;;
41711;SDS011;27399;51.516;13.670;2023-04-25T14:28:03;7.28;;;2.25;;
41711;SDS011;27399;51.516;13.670;2023-04-25T14:30:29;10.73;;;2.30;;
41711;SDS011;27399;51.516;13.670;2023-04-25T14:32:54;13.63;;;2.95;;
41711;SDS011;27399;51.516;13.670;2023-04-25T14:35:20;9.15;;;2.15;;
41711;SDS011;27399;51.516;13.670;2023-04-25T14:37:46;7.07;;;1.80;;
41711;SDS011;27399;51.516;13.670;2023-04-25T14:40:12;8.13;;;2.03;;
41711;SDS011;27399;51.516;13.670;2023-04-25T14:42:40;9.25;;;1.88;;
41711;SDS011;27399;51.516;13.670;2023-04-25T14:45:06;6.55;;;1.90;;
41711;SDS011;27399;51.516;13.670;2023-04-25T14:47:33;8.82;;;2.90;;